createdAt,value
2023-03-21T00:02:42.955Z,21.6
2023-03-21T00:08:55.126Z,21.6
2023-03-21T00:15:13.298Z,21.6
2023-03-21T00:22:06.800Z,21.5
2023-03-21T00:28:40.815Z,21.5
2023-03-21T00:35:13.895Z,21.5
2023-03-21T00:42:15.667Z,21.5
2023-03-21T00:48:32.209Z,21.6
2023-03-21T00:54:41.502Z,21.6
2023-03-21T01:00:31.553Z,21.5
2023-03-21T01:06:37.459Z,21.5
2023-03-21T01:12:32.215Z,21.5
2023-03-21T01:18:36.026Z,21.5
2023-03-21T01:24:22.267Z,21.5
2023-03-21T01:30:41.569Z,21.5
2023-03-21T01:36:43.405Z,21.5
2023-03-21T01:42:17.442Z,21.5
2023-03-21T01:48:17.184Z,21.5
2023-03-21T01:54:15.495Z,21.5
2023-03-21T01:59:47.916Z,21.5
2023-03-21T02:05:43.622Z,21.5
2023-03-21T02:11:31.210Z,21.6
2023-03-21T02:17:21.065Z,21.5
2023-03-21T02:23:18.124Z,21.5
2023-03-21T02:29:02.351Z,21.5
2023-03-21T02:35:22.963Z,21.5
2023-03-21T02:41:56.786Z,21.5
2023-03-21T02:48:50.503Z,21.5
2023-03-21T02:55:37.278Z,21.5
2023-03-21T03:01:23.715Z,21.6
2023-03-21T03:07:08.120Z,21.6
2023-03-21T03:12:59.469Z,21.5
2023-03-21T03:19:32.729Z,21.5
2023-03-21T03:25:16.314Z,21.5
2023-03-21T03:31:25.723Z,21.6
2023-03-21T03:37:37.721Z,21.6
2023-03-21T03:43:33.878Z,21.6
2023-03-21T03:49:37.161Z,21.5
2023-03-21T03:55:47.032Z,21.6
2023-03-21T04:01:53.422Z,21.6
2023-03-21T04:08:09.661Z,21.6
2023-03-21T04:13:59.892Z,21.6
2023-03-21T04:20:11.293Z,21.6
2023-03-21T04:26:13.010Z,21.6
2023-03-21T04:32:32.038Z,21.6
2023-03-21T04:38:24.944Z,21.6
2023-03-21T04:44:16.961Z,21.6
2023-03-21T04:50:09.563Z,21.6
2023-03-21T04:56:01.863Z,21.6
2023-03-21T05:01:53.777Z,21.6
2023-03-21T05:07:47.928Z,21.6
2023-03-21T05:13:43.117Z,21.6
2023-03-21T05:19:34.605Z,21.6
2023-03-21T05:25:27.101Z,21.6
2023-03-21T05:31:20.161Z,21.6
2023-03-21T05:36:57.281Z,21.8
2023-03-21T05:42:51.171Z,21.6
2023-03-21T05:48:45.509Z,21.4
2023-03-21T05:54:21.183Z,21.1
2023-03-21T06:00:14.152Z,20.8
2023-03-21T06:06:07.471Z,20.6
2023-03-21T06:11:58.880Z,20.5
2023-03-21T06:17:52.309Z,20.5
2023-03-21T06:23:29.510Z,20.6
2023-03-21T06:28:50.188Z,20.7
2023-03-21T06:34:43.473Z,20.6
2023-03-21T06:40:36.419Z,20.5
2023-03-21T06:46:28.924Z,20.4
2023-03-21T06:52:07.510Z,20.3
2023-03-21T06:57:45.181Z,19.1
2023-03-21T07:03:23.725Z,21.1
2023-03-21T07:09:17.446Z,20.5
2023-03-21T07:14:54.736Z,20.4
2023-03-21T07:20:47.529Z,20.1
2023-03-21T07:26:46.735Z,20
2023-03-21T07:32:23.790Z,19.9
2023-03-21T07:38:00.238Z,22.2
2023-03-21T07:43:38.991Z,21.6
2023-03-21T07:49:35.525Z,21.9
2023-03-21T07:55:28.026Z,22.5
2023-03-21T08:01:21.203Z,23.2
2023-03-21T08:07:15.918Z,23.7
2023-03-21T08:13:11.308Z,24.3
2023-03-21T08:19:04.235Z,24.8
2023-03-21T08:24:56.839Z,25.6
2023-03-21T08:30:34.424Z,25.9
2023-03-21T08:36:30.810Z,26.1
2023-03-21T08:42:24.983Z,26.3
2023-03-21T08:48:02.615Z,26.4
2023-03-21T08:53:56.753Z,26.5
2023-03-21T08:59:50.517Z,26.7
2023-03-21T09:05:44.631Z,27
2023-03-21T09:11:58.663Z,27.2
2023-03-21T09:17:38.562Z,27.3
2023-03-21T09:23:32.412Z,27.4
2023-03-21T09:29:25.707Z,27.6
2023-03-21T09:35:02.951Z,27.9
2023-03-21T09:40:55.085Z,28.3
2023-03-21T09:46:49.002Z,28.8
2023-03-21T09:53:00.723Z,29
2023-03-21T09:58:53.294Z,29.1
2023-03-21T10:04:47.532Z,29.3
2023-03-21T10:10:41.429Z,29.7
2023-03-21T10:16:37.106Z,30.3
2023-03-21T10:22:57.495Z,31.3
2023-03-21T10:29:06.814Z,33.3
2023-03-21T10:35:00.768Z,35.3
2023-03-21T10:40:39.612Z,36.9
2023-03-21T10:46:35.864Z,38.1
2023-03-21T10:52:53.461Z,38.6
2023-03-21T10:58:46.626Z,39.3
2023-03-21T11:04:25.357Z,40.1
2023-03-21T11:10:02.936Z,41.1
2023-03-21T11:16:06.440Z,41.8
2023-03-21T11:21:46.453Z,42.3
2023-03-21T11:27:39.323Z,42.8
2023-03-21T11:33:32.357Z,43.2
2023-03-21T11:39:25.736Z,43.9
2023-03-21T11:45:19.434Z,44.8
2023-03-21T11:51:02.659Z,44.7
2023-03-21T11:56:55.938Z,44.6
2023-03-21T12:03:00.910Z,44.8
2023-03-21T12:09:07.887Z,44.8
2023-03-21T12:15:08.905Z,44.8
2023-03-21T12:21:01.810Z,44.6
2023-03-21T12:26:57.518Z,44.3
2023-03-21T12:33:03.492Z,44
2023-03-21T12:38:58.670Z,43.8
2023-03-21T12:44:52.321Z,43.7
2023-03-21T12:51:07.692Z,43.6
2023-03-21T12:56:30.278Z,43.7
2023-03-21T13:02:05.034Z,43.6
2023-03-21T13:08:11.370Z,43.4
2023-03-21T13:13:53.900Z,43.1
2023-03-21T13:19:54.861Z,42.9
2023-03-21T13:25:48.609Z,42.6
2023-03-21T13:31:26.221Z,42.2
2023-03-21T13:37:29.405Z,41.9
2023-03-21T13:43:27.270Z,41.6
2023-03-21T13:49:41.460Z,41.1
2023-03-21T13:55:35.020Z,40.7
2023-03-21T14:01:29.669Z,40.4
2023-03-21T14:07:33.180Z,39.9
2023-03-21T14:13:51.481Z,39.5
2023-03-21T14:20:16.947Z,39.1
2023-03-21T14:26:20.753Z,38.5
2023-03-21T14:32:32.061Z,36.6
2023-03-21T14:38:04.734Z,35.1
2023-03-21T14:43:57.899Z,33.8
2023-03-21T14:49:59.546Z,32.6
2023-03-21T14:55:37.173Z,31.8
2023-03-21T15:01:14.589Z,31
2023-03-21T15:07:09.394Z,30.3
2023-03-21T15:13:00.321Z,29.8
2023-03-21T15:18:53.794Z,29.3
2023-03-21T15:24:47.137Z,28.8
2023-03-21T15:30:42.120Z,28.4
2023-03-21T15:36:19.533Z,28.1
2023-03-21T15:47:22.605Z,27.6
2023-03-21T15:53:01.923Z,27.4
2023-03-21T15:58:25.587Z,27.1
2023-03-21T16:04:04.143Z,26.9
2023-03-21T16:09:56.689Z,26.8
2023-03-21T16:15:49.721Z,26.6
2023-03-21T16:21:42.612Z,26.4
2023-03-21T16:27:35.128Z,26.3
2023-03-21T16:33:28.599Z,26.1
2023-03-21T16:39:05.814Z,25.9
2023-03-21T16:44:43.697Z,25.8
2023-03-21T16:50:21.708Z,25.6
2023-03-21T16:55:59.106Z,25.5
2023-03-21T17:01:53.902Z,25.4
2023-03-21T17:07:48.530Z,25.3
2023-03-21T17:13:25.643Z,25.2
2023-03-21T17:19:19.112Z,25.1
2023-03-21T17:24:59.390Z,25.1
2023-03-21T17:30:52.215Z,25
2023-03-21T17:36:44.947Z,24.9
2023-03-21T17:42:37.628Z,24.8
2023-03-21T17:48:16.131Z,24.8
2023-03-21T17:53:56.436Z,24.6
2023-03-21T17:59:18.698Z,24.5
2023-03-21T18:05:14.399Z,24.2
2023-03-21T18:11:51.051Z,23.9
2023-03-21T18:17:52.986Z,23.6
2023-03-21T18:23:57.651Z,23.4
2023-03-21T18:32:21.013Z,23.3
2023-03-21T18:38:21.702Z,23.1
2023-03-21T18:45:28.046Z,22.9
2023-03-21T18:52:11.163Z,22.8
2023-03-21T18:59:20.584Z,22.8
2023-03-21T19:05:44.869Z,22.7
2023-03-21T19:12:12.534Z,22.6
2023-03-21T19:19:43.447Z,22.6
2023-03-21T19:26:13.158Z,22.5
2023-03-21T19:32:29.582Z,22.4
2023-03-21T19:38:47.577Z,22.3
2023-03-21T19:45:17.666Z,22.3
2023-03-21T19:52:20.557Z,22.3
2023-03-21T19:58:26.787Z,22.2
2023-03-21T20:04:46.839Z,22.1
2023-03-21T20:11:30.653Z,22.1
2023-03-21T20:17:40.641Z,22.1
2023-03-21T20:24:12.709Z,22.1
2023-03-21T20:31:30.361Z,22.1
2023-03-21T20:38:36.708Z,22.1
2023-03-21T20:45:54.366Z,22.1
2023-03-21T20:53:23.720Z,22
2023-03-21T20:59:49.314Z,21.9
2023-03-21T21:06:19.631Z,21.9
2023-03-21T21:13:03.314Z,21.9
2023-03-21T21:19:10.665Z,21.8
2023-03-21T21:25:13.295Z,21.8
2023-03-21T21:31:07.039Z,21.8
2023-03-21T21:37:00.095Z,21.7
2023-03-21T21:42:52.095Z,21.7
2023-03-21T21:48:30.441Z,21.7
2023-03-21T21:54:23.274Z,21.6
2023-03-21T22:00:00.664Z,21.6
2023-03-21T22:05:53.523Z,21.6
2023-03-21T22:11:18.716Z,21.6
2023-03-21T22:16:56.412Z,21.6
2023-03-21T22:22:37.686Z,21.6
2023-03-21T22:28:31.505Z,21.6
2023-03-21T22:34:32.198Z,21.6
2023-03-21T22:40:09.193Z,21.6
2023-03-21T22:46:02.290Z,21.5
2023-03-21T22:51:38.546Z,21.5
2023-03-21T22:57:31.439Z,21.5
2023-03-21T23:03:24.993Z,21.4
2023-03-21T23:09:03.027Z,21.4
2023-03-21T23:14:56.099Z,21.4
2023-03-21T23:20:17.746Z,21.4
2023-03-21T23:26:14.144Z,21.4
2023-03-21T23:31:51.102Z,21.4
2023-03-21T23:37:44.688Z,21.4
2023-03-21T23:43:36.262Z,21.4
2023-03-21T23:49:29.320Z,21.4
2023-03-21T23:55:23.252Z,21.4
